createdAt,value
2017-10-23T00:00:08.868Z,1007.56
2017-10-23T00:00:49.359Z,1007.56
2017-10-23T00:01:29.840Z,1007.55
2017-10-23T00:02:10.311Z,1007.55
2017-10-23T00:02:50.790Z,1007.54
2017-10-23T00:03:31.289Z,1007.49
2017-10-23T00:04:11.771Z,1007.56
2017-10-23T00:04:52.243Z,1007.56
2017-10-23T00:05:32.731Z,1007.53
2017-10-23T00:06:13.228Z,1007.49
2017-10-23T00:06:53.706Z,1007.54
2017-10-23T00:07:34.180Z,1007.53
2017-10-23T00:08:14.661Z,1007.49
2017-10-23T00:08:55.121Z,1007.54
2017-10-23T00:09:35.618Z,1007.57
2017-10-23T00:10:16.109Z,1007.5
2017-10-23T00:10:56.597Z,1007.52
2017-10-23T00:11:37.097Z,1007.54
2017-10-23T00:12:17.571Z,1007.54
2017-10-23T00:12:58.062Z,1007.56
2017-10-23T00:13:38.563Z,1007.51
2017-10-23T00:14:19.060Z,1007.53
2017-10-23T00:14:59.539Z,1007.55
2017-10-23T00:15:40.023Z,1007.56
2017-10-23T00:16:20.522Z,1007.55
2017-10-23T00:17:01.003Z,1007.57
2017-10-23T00:17:41.498Z,1007.54
2017-10-23T00:18:21.989Z,1007.57
2017-10-23T00:19:02.490Z,1007.59
2017-10-23T00:19:42.965Z,1007.55
2017-10-23T00:20:23.413Z,1007.57
2017-10-23T00:21:03.881Z,1007.58
2017-10-23T00:21:44.378Z,1007.58
2017-10-23T00:22:24.866Z,1007.58
2017-10-23T00:23:05.362Z,1007.56
2017-10-23T00:23:45.853Z,1007.58
2017-10-23T00:24:26.363Z,1007.55
2017-10-23T00:25:06.827Z,1007.53
2017-10-23T00:25:47.304Z,1007.52
2017-10-23T00:26:27.804Z,1007.53
2017-10-23T00:27:08.278Z,1007.51
2017-10-23T00:27:48.765Z,1007.51
2017-10-23T00:28:29.196Z,1007.52
2017-10-23T00:29:09.682Z,1007.52
2017-10-23T00:29:50.178Z,1007.55
2017-10-23T00:30:30.670Z,1007.54
2017-10-23T00:31:11.145Z,1007.51
2017-10-23T00:31:51.624Z,1007.55
2017-10-23T00:32:32.127Z,1007.53
2017-10-23T00:33:12.597Z,1007.55
2017-10-23T00:33:53.065Z,1007.49
2017-10-23T00:34:33.543Z,1007.52
2017-10-23T00:35:14.026Z,1007.5
2017-10-23T00:35:54.518Z,1007.53
2017-10-23T00:36:35.009Z,1007.49
2017-10-23T00:37:15.485Z,1007.51
2017-10-23T00:37:55.948Z,1007.49
2017-10-23T00:38:36.451Z,1007.53
2017-10-23T00:39:16.943Z,1007.55
2017-10-23T00:39:57.432Z,1007.55
2017-10-23T00:40:37.939Z,1007.53
2017-10-23T00:41:18.411Z,1007.5
2017-10-23T00:41:58.894Z,1007.53
2017-10-23T00:42:39.406Z,1007.5
2017-10-23T00:43:19.880Z,1007.53
2017-10-23T00:44:00.373Z,1007.54
2017-10-23T00:44:40.840Z,1007.53
2017-10-23T00:46:53.561Z,1007.57
2017-10-23T00:47:34.015Z,1007.55
2017-10-23T00:48:14.507Z,1007.54
2017-10-23T00:48:54.986Z,1007.55
2017-10-23T00:49:35.472Z,1007.54
2017-10-23T00:50:15.958Z,1007.53
2017-10-23T00:50:56.436Z,1007.46
2017-10-23T00:51:36.932Z,1007.56
2017-10-23T00:52:17.413Z,1007.56
2017-10-23T00:52:57.888Z,1007.62
2017-10-23T00:53:38.377Z,1007.57
2017-10-23T00:54:18.885Z,1007.56
2017-10-23T00:54:59.402Z,1007.56
2017-10-23T00:55:39.867Z,1007.57
2017-10-23T00:56:20.363Z,1007.56
2017-10-23T00:57:00.839Z,1007.56
2017-10-23T00:57:41.381Z,1007.58
2017-10-23T00:58:21.806Z,1007.6
2017-10-23T00:59:02.295Z,1007.6
2017-10-23T00:59:42.785Z,1007.61
2017-10-23T01:00:23.266Z,1007.57
2017-10-23T01:01:03.742Z,1007.63
2017-10-23T01:01:44.231Z,1007.63
2017-10-23T01:02:24.736Z,1007.58
2017-10-23T01:03:05.210Z,1007.69
2017-10-23T01:03:45.713Z,1007.61
2017-10-23T01:04:26.196Z,1007.65
2017-10-23T01:05:06.693Z,1007.64
2017-10-23T01:05:47.181Z,1007.67
2017-10-23T01:06:27.690Z,1007.64
2017-10-23T01:07:08.138Z,1007.64
2017-10-23T01:07:48.641Z,1007.65
2017-10-23T01:08:29.141Z,1007.66
2017-10-23T01:09:09.633Z,1007.67
2017-10-23T01:09:50.121Z,1007.69
2017-10-23T01:10:30.605Z,1007.68
2017-10-23T01:11:11.085Z,1007.65
2017-10-23T01:11:51.577Z,1007.66
2017-10-23T01:12:32.051Z,1007.7
2017-10-23T01:13:12.538Z,1007.7
2017-10-23T01:13:53.014Z,1007.65
2017-10-23T01:14:33.493Z,1007.67
2017-10-23T01:15:14.002Z,1007.68
2017-10-23T01:15:54.479Z,1007.67
2017-10-23T01:16:34.934Z,1007.69
2017-10-23T01:18:52.745Z,1007.66
2017-10-23T01:19:33.220Z,1007.64
2017-10-23T01:20:13.711Z,1007.65
2017-10-23T01:20:54.189Z,1007.69
2017-10-23T01:21:34.674Z,1007.63
2017-10-23T01:22:15.128Z,1007.6
2017-10-23T01:22:55.602Z,1007.61
2017-10-23T01:25:08.303Z,1007.63
2017-10-23T01:25:48.796Z,1007.61
2017-10-23T01:26:29.265Z,1007.58
2017-10-23T01:27:09.757Z,1007.58
2017-10-23T01:27:50.244Z,1007.6
2017-10-23T01:28:30.739Z,1007.62
2017-10-23T01:29:11.245Z,1007.62
2017-10-23T01:29:51.722Z,1007.6
2017-10-23T01:30:32.216Z,1007.58
2017-10-23T01:31:12.740Z,1007.57
2017-10-23T01:31:53.198Z,1007.6
2017-10-23T01:32:33.672Z,1007.62
2017-10-23T01:33:14.161Z,1007.6
2017-10-23T01:33:54.645Z,1007.61
2017-10-23T01:34:35.119Z,1007.61
2017-10-23T01:35:15.606Z,1007.63
2017-10-23T01:35:56.093Z,1007.63
2017-10-23T01:36:36.587Z,1007.63
2017-10-23T01:37:17.071Z,1007.63
2017-10-23T01:37:57.553Z,1007.69
2017-10-23T01:38:38.055Z,1007.71
2017-10-23T01:39:18.541Z,1007.72
2017-10-23T01:39:59.050Z,1007.73
2017-10-23T01:40:39.543Z,1007.72
2017-10-23T01:41:20.022Z,1007.73
2017-10-23T01:42:00.532Z,1007.74
2017-10-23T01:42:41.021Z,1007.74
2017-10-23T01:43:21.485Z,1007.7
2017-10-23T01:44:01.987Z,1007.69
2017-10-23T01:44:42.488Z,1007.71
2017-10-23T01:45:22.975Z,1007.64
2017-10-23T01:46:03.485Z,1007.67
2017-10-23T01:46:43.981Z,1007.68
2017-10-23T01:47:24.477Z,1007.67
2017-10-23T01:48:04.948Z,1007.59
2017-10-23T01:48:45.444Z,1007.65
2017-10-23T01:49:25.930Z,1007.63
2017-10-23T01:50:06.408Z,1007.65
2017-10-23T01:50:46.889Z,1007.71
2017-10-23T01:51:27.375Z,1007.66
2017-10-23T01:52:07.868Z,1007.65
2017-10-23T01:52:48.334Z,1007.74
2017-10-23T01:53:28.830Z,1007.65
2017-10-23T01:54:09.324Z,1007.67
2017-10-23T01:54:49.795Z,1007.68
2017-10-23T01:55:30.279Z,1007.63
2017-10-23T01:56:10.771Z,1007.68
2017-10-23T01:56:51.257Z,1007.62
2017-10-23T01:57:31.744Z,1007.65
2017-10-23T01:58:12.232Z,1007.64
2017-10-23T01:58:52.728Z,1007.64
2017-10-23T01:59:33.212Z,1007.58
2017-10-23T02:00:13.697Z,1007.63
2017-10-23T02:00:54.207Z,1007.67
2017-10-23T02:01:34.688Z,1007.63
2017-10-23T02:02:15.156Z,1007.66
2017-10-23T02:02:55.641Z,1007.68
2017-10-23T02:03:36.117Z,1007.67
2017-10-23T02:04:16.610Z,1007.66
2017-10-23T02:04:57.082Z,1007.66
2017-10-23T02:05:37.550Z,1007.67
2017-10-23T02:06:18.024Z,1007.67
2017-10-23T02:06:58.508Z,1007.64
2017-10-23T02:07:39.001Z,1007.65
2017-10-23T02:08:19.486Z,1007.7
2017-10-23T02:08:59.967Z,1007.66
2017-10-23T02:09:40.476Z,1007.69
2017-10-23T02:10:20.955Z,1007.66
2017-10-23T02:11:01.436Z,1007.68
2017-10-23T02:11:41.922Z,1007.66
2017-10-23T02:12:22.419Z,1007.65
2017-10-23T02:13:02.898Z,1007.65
2017-10-23T02:13:43.397Z,1007.65
2017-10-23T02:14:23.881Z,1007.63
2017-10-23T02:15:04.352Z,1007.64
2017-10-23T02:15:44.844Z,1007.69
2017-10-23T02:16:25.313Z,1007.67
2017-10-23T02:17:05.820Z,1007.72
2017-10-23T02:17:46.296Z,1007.73
2017-10-23T02:18:26.761Z,1007.71
2017-10-23T02:19:07.255Z,1007.67
2017-10-23T02:19:47.759Z,1007.7
2017-10-23T02:20:28.232Z,1007.69
2017-10-23T02:22:46.038Z,1007.68
2017-10-23T02:23:26.534Z,1007.71
2017-10-23T02:24:07.026Z,1007.76
2017-10-23T02:24:47.511Z,1007.72
2017-10-23T02:25:28.018Z,1007.78
2017-10-23T02:26:08.489Z,1007.78
2017-10-23T02:26:48.983Z,1007.76
2017-10-23T02:27:29.442Z,1007.81
2017-10-23T02:28:09.906Z,1007.81
2017-10-23T02:28:50.414Z,1007.83
2017-10-23T02:29:30.887Z,1007.87
2017-10-23T02:30:11.393Z,1007.84
2017-10-23T02:30:51.895Z,1007.84
2017-10-23T02:31:32.365Z,1007.82
2017-10-23T02:32:12.860Z,1007.85
2017-10-23T02:32:53.312Z,1007.85
2017-10-23T02:33:33.743Z,1007.83
2017-10-23T02:34:14.190Z,1007.83
2017-10-23T02:34:54.627Z,1007.85
2017-10-23T02:35:35.111Z,1007.86
2017-10-23T02:36:15.570Z,1007.89
2017-10-23T02:36:56.039Z,1007.85
2017-10-23T02:37:36.564Z,1007.83
2017-10-23T02:38:17.011Z,1007.84
2017-10-23T02:38:57.493Z,1007.84
2017-10-23T02:41:10.165Z,1007.76
2017-10-23T02:41:50.658Z,1007.79
2017-10-23T02:42:31.152Z,1007.81
2017-10-23T02:43:11.660Z,1007.82
2017-10-23T02:43:52.145Z,1007.83
2017-10-23T02:44:32.630Z,1007.79
2017-10-23T02:45:13.105Z,1007.85
2017-10-23T02:45:53.577Z,1007.8
2017-10-23T02:46:34.068Z,1007.83
2017-10-23T02:47:14.563Z,1007.79
2017-10-23T02:47:55.038Z,1007.81
2017-10-23T02:48:35.532Z,1007.84
2017-10-23T02:49:16.003Z,1007.78
2017-10-23T02:49:56.500Z,1007.81
2017-10-23T02:50:36.982Z,1007.87
2017-10-23T02:51:17.480Z,1007.85
2017-10-23T02:51:57.977Z,1007.87
2017-10-23T02:52:38.453Z,1007.83
2017-10-23T02:53:18.934Z,1007.91
2017-10-23T02:53:59.426Z,1007.9
2017-10-23T02:54:39.903Z,1007.91
2017-10-23T02:55:20.384Z,1007.86
2017-10-23T02:56:00.864Z,1007.85
2017-10-23T02:56:41.321Z,1007.88
2017-10-23T02:57:21.785Z,1007.86
2017-10-23T02:58:02.274Z,1007.89
2017-10-23T02:58:42.766Z,1007.91
2017-10-23T03:00:40.389Z,1007.96
2017-10-23T03:01:20.887Z,1007.94
2017-10-23T03:02:01.368Z,1007.97
2017-10-23T03:02:41.844Z,1007.94
2017-10-23T03:03:22.363Z,1007.99
2017-10-23T03:04:02.844Z,1008.01
2017-10-23T03:04:43.318Z,1008
2017-10-23T03:05:23.829Z,1007.99
2017-10-23T03:06:04.312Z,1008.03
2017-10-23T03:06:44.807Z,1008.01
2017-10-23T03:07:25.356Z,1008
2017-10-23T03:08:05.836Z,1008.01
2017-10-23T03:08:46.332Z,1008.03
2017-10-23T03:09:26.831Z,1008.04
2017-10-23T03:10:07.288Z,1008.08
2017-10-23T03:10:47.769Z,1008.04
2017-10-23T03:11:28.259Z,1008.03
2017-10-23T03:12:08.758Z,1008.07
2017-10-23T03:12:49.247Z,1008.04
2017-10-23T03:13:29.721Z,1008.06
2017-10-23T03:14:10.224Z,1008.05
2017-10-23T03:14:50.700Z,1008.05
2017-10-23T03:15:31.190Z,1008.06
2017-10-23T03:16:11.654Z,1008.04
2017-10-23T03:16:52.140Z,1008
2017-10-23T03:17:32.634Z,1008.04
2017-10-23T03:18:13.120Z,1008.08
2017-10-23T03:18:53.589Z,1008.05
2017-10-23T03:19:34.093Z,1008.09
2017-10-23T03:20:14.564Z,1008.07
2017-10-23T03:22:32.345Z,1008.16
2017-10-23T03:23:12.885Z,1008.17
2017-10-23T03:23:53.366Z,1008.11
2017-10-23T03:24:33.861Z,1008.18
2017-10-23T03:25:14.356Z,1008.14
2017-10-23T03:25:54.839Z,1008.14
2017-10-23T03:26:35.339Z,1008.16
2017-10-23T03:27:15.830Z,1008.11
2017-10-23T03:27:56.318Z,1008.11
2017-10-23T03:28:36.788Z,1008.15
2017-10-23T03:29:17.284Z,1008.13
2017-10-23T03:29:57.773Z,1008.18
2017-10-23T03:30:38.256Z,1008.16
2017-10-23T03:31:18.728Z,1008.16
2017-10-23T03:31:59.179Z,1008.18
2017-10-23T03:32:39.683Z,1008.19
2017-10-23T03:33:20.165Z,1008.21
2017-10-23T03:34:00.652Z,1008.19
2017-10-23T03:34:41.131Z,1008.18
2017-10-23T03:35:21.642Z,1008.18
2017-10-23T03:36:02.123Z,1008.12
2017-10-23T03:36:42.620Z,1008.12
2017-10-23T03:37:23.080Z,1008.18
2017-10-23T03:39:35.811Z,1008.15
2017-10-23T03:40:16.250Z,1008.18
2017-10-23T03:40:56.753Z,1008.15
2017-10-23T03:41:37.235Z,1008.1
2017-10-23T03:42:17.705Z,1008.1
2017-10-23T03:42:58.183Z,1008.18
2017-10-23T03:43:38.658Z,1008.15
2017-10-23T03:44:19.132Z,1008.18
2017-10-23T03:44:59.640Z,1008.14
2017-10-23T03:45:40.105Z,1008.17
2017-10-23T03:46:20.580Z,1008.17
2017-10-23T03:47:01.086Z,1008.16
2017-10-23T03:47:41.567Z,1008.15
2017-10-23T03:48:22.045Z,1008.19
2017-10-23T03:49:02.518Z,1008.22
2017-10-23T03:49:42.994Z,1008.22
2017-10-23T03:50:23.500Z,1008.19
2017-10-23T03:51:03.976Z,1008.18
2017-10-23T03:51:44.457Z,1008.17
2017-10-23T03:52:24.948Z,1008.2
2017-10-23T03:53:05.442Z,1008.21
2017-10-23T03:55:03.051Z,1008.26
2017-10-23T03:55:43.522Z,1008.28
2017-10-23T03:56:24.003Z,1008.26
2017-10-23T03:57:04.495Z,1008.23
2017-10-23T03:57:44.965Z,1008.25
2017-10-23T03:58:25.442Z,1008.26
2017-10-23T03:59:05.947Z,1008.26
2017-10-23T03:59:46.428Z,1008.28
2017-10-23T04:00:26.910Z,1008.3
2017-10-23T04:01:07.408Z,1008.32
2017-10-23T04:01:47.883Z,1008.31
2017-10-23T04:02:28.377Z,1008.34
2017-10-23T04:03:08.856Z,1008.32
2017-10-23T04:03:49.329Z,1008.31
2017-10-23T04:04:29.820Z,1008.34
2017-10-23T04:05:10.302Z,1008.35
2017-10-23T04:05:50.781Z,1008.33
2017-10-23T04:06:31.257Z,1008.35
2017-10-23T04:07:11.753Z,1008.37
2017-10-23T04:07:52.250Z,1008.33
2017-10-23T04:08:32.741Z,1008.37
2017-10-23T04:09:13.225Z,1008.36
2017-10-23T04:09:53.721Z,1008.34
2017-10-23T04:10:34.204Z,1008.33
2017-10-23T04:11:14.711Z,1008.35
2017-10-23T04:11:55.196Z,1008.35
2017-10-23T04:12:35.666Z,1008.41
2017-10-23T04:13:16.143Z,1008.42
2017-10-23T04:13:56.649Z,1008.41
2017-10-23T04:14:37.139Z,1008.45
2017-10-23T04:15:17.617Z,1008.42
2017-10-23T04:17:30.345Z,1008.39
2017-10-23T04:18:10.819Z,1008.39
2017-10-23T04:18:51.300Z,1008.39
2017-10-23T04:19:31.786Z,1008.37
2017-10-23T04:20:12.261Z,1008.35
2017-10-23T04:20:52.739Z,1008.36
2017-10-23T04:21:33.213Z,1008.33
2017-10-23T04:22:13.720Z,1008.34
2017-10-23T04:22:54.213Z,1008.33
2017-10-23T04:23:34.690Z,1008.36
2017-10-23T04:24:15.196Z,1008.42
2017-10-23T04:24:55.681Z,1008.36
2017-10-23T04:25:36.159Z,1008.41
2017-10-23T04:26:16.628Z,1008.4
2017-10-23T04:26:57.122Z,1008.41
2017-10-23T04:27:37.632Z,1008.43
2017-10-23T04:28:18.100Z,1008.42
2017-10-23T04:28:58.580Z,1008.41
2017-10-23T04:29:39.066Z,1008.4
2017-10-23T04:30:19.561Z,1008.42
2017-10-23T04:31:00.034Z,1008.48
2017-10-23T04:31:40.506Z,1008.43
2017-10-23T04:32:20.981Z,1008.45
2017-10-23T04:33:01.500Z,1008.47
2017-10-23T04:33:41.984Z,1008.44
2017-10-23T04:34:22.476Z,1008.48
2017-10-23T04:35:02.980Z,1008.45
2017-10-23T04:35:43.444Z,1008.44
2017-10-23T04:36:23.914Z,1008.5
2017-10-23T04:38:51.904Z,1008.47
2017-10-23T04:39:32.370Z,1008.5
2017-10-23T04:40:12.908Z,1008.51
2017-10-23T04:40:53.337Z,1008.49
2017-10-23T04:41:33.826Z,1008.45
2017-10-23T04:42:14.303Z,1008.49
2017-10-23T04:42:54.777Z,1008.48
2017-10-23T04:43:35.273Z,1008.47
2017-10-23T04:44:15.770Z,1008.46
2017-10-23T04:44:56.247Z,1008.51
2017-10-23T04:45:36.740Z,1008.5
2017-10-23T04:46:17.242Z,1008.46
2017-10-23T04:46:57.723Z,1008.51
2017-10-23T04:47:38.185Z,1008.46
2017-10-23T04:48:18.678Z,1008.47
2017-10-23T04:48:59.177Z,1008.46
2017-10-23T04:49:39.656Z,1008.48
2017-10-23T04:50:20.169Z,1008.47
2017-10-23T04:51:00.655Z,1008.43
2017-10-23T04:51:41.123Z,1008.42
2017-10-23T04:52:21.582Z,1008.45
2017-10-23T04:54:49.476Z,1008.49
2017-10-23T04:55:29.951Z,1008.47
2017-10-23T04:56:10.427Z,1008.49
2017-10-23T04:56:50.926Z,1008.46
2017-10-23T04:57:31.410Z,1008.51
2017-10-23T04:58:11.880Z,1008.49
2017-10-23T04:58:52.367Z,1008.56
2017-10-23T04:59:32.857Z,1008.55
2017-10-23T05:00:13.353Z,1008.52
2017-10-23T05:00:53.829Z,1008.54
2017-10-23T05:01:34.330Z,1008.52
2017-10-23T05:02:14.821Z,1008.58
2017-10-23T05:02:55.297Z,1008.51
2017-10-23T05:03:35.809Z,1008.52
2017-10-23T05:04:16.300Z,1008.54
2017-10-23T05:04:56.781Z,1008.58
2017-10-23T05:05:37.318Z,1008.55
2017-10-23T05:06:17.792Z,1008.53
2017-10-23T05:06:58.262Z,1008.57
2017-10-23T05:07:38.764Z,1008.55
2017-10-23T05:08:19.253Z,1008.59
2017-10-23T05:08:59.730Z,1008.57
2017-10-23T05:09:40.209Z,1008.53
2017-10-23T05:10:20.728Z,1008.58
2017-10-23T05:11:01.227Z,1008.54
2017-10-23T05:11:41.713Z,1008.48
2017-10-23T05:12:22.203Z,1008.52
2017-10-23T05:13:02.669Z,1008.54
2017-10-23T05:13:43.144Z,1008.58
2017-10-23T05:14:23.685Z,1008.52
2017-10-23T05:15:04.165Z,1008.51
2017-10-23T05:15:44.672Z,1008.5
2017-10-23T05:16:25.172Z,1008.51
2017-10-23T05:17:05.632Z,1008.52
2017-10-23T05:17:46.178Z,1008.52
2017-10-23T05:18:26.651Z,1008.49
2017-10-23T05:19:07.115Z,1008.5
2017-10-23T05:19:47.599Z,1008.51
2017-10-23T05:20:28.084Z,1008.51
2017-10-23T05:21:08.569Z,1008.51
2017-10-23T05:21:49.052Z,1008.51
2017-10-23T05:22:29.560Z,1008.53
2017-10-23T05:23:10.055Z,1008.5
2017-10-23T05:23:50.523Z,1008.52
2017-10-23T05:24:31.014Z,1008.54
2017-10-23T05:25:11.489Z,1008.51
2017-10-23T05:25:51.986Z,1008.5
2017-10-23T05:26:32.458Z,1008.53
2017-10-23T05:27:12.944Z,1008.49
2017-10-23T05:27:53.461Z,1008.46
2017-10-23T05:28:33.950Z,1008.52
2017-10-23T05:29:14.403Z,1008.45
2017-10-23T05:29:55.471Z,1008.5
2017-10-23T05:30:35.960Z,1008.51
2017-10-23T05:31:16.468Z,1008.51
2017-10-23T05:31:56.934Z,1008.55
2017-10-23T05:32:37.411Z,1008.53
2017-10-23T05:33:17.922Z,1008.48
2017-10-23T05:33:58.422Z,1008.52
2017-10-23T05:34:38.889Z,1008.52
2017-10-23T05:35:19.421Z,1008.49
2017-10-23T05:35:59.900Z,1008.52
2017-10-23T05:36:40.371Z,1008.54
2017-10-23T05:37:20.894Z,1008.51
2017-10-23T05:38:01.372Z,1008.48
2017-10-23T05:38:41.839Z,1008.53
2017-10-23T05:39:22.327Z,1008.55
2017-10-23T05:41:14.969Z,1008.54
2017-10-23T05:41:55.518Z,1008.52
2017-10-23T05:42:35.981Z,1008.55
2017-10-23T05:43:16.531Z,1008.55
2017-10-23T05:43:57.053Z,1008.57
2017-10-23T05:44:37.542Z,1008.54
2017-10-23T05:45:18.016Z,1008.54
2017-10-23T05:45:58.476Z,1008.6
2017-10-23T05:48:11.249Z,1008.64
2017-10-23T05:48:51.722Z,1008.64
2017-10-23T05:49:32.188Z,1008.64
2017-10-23T05:50:12.657Z,1008.63
2017-10-23T05:50:53.152Z,1008.63
2017-10-23T05:51:33.579Z,1008.67
2017-10-23T05:52:14.025Z,1008.65
2017-10-23T05:52:54.540Z,1008.71
2017-10-23T05:53:35.007Z,1008.69
2017-10-23T05:54:15.500Z,1008.64
2017-10-23T05:54:55.968Z,1008.66
2017-10-23T05:55:36.391Z,1008.71
2017-10-23T05:56:16.936Z,1008.74
2017-10-23T05:56:57.641Z,1008.74
2017-10-23T05:57:38.141Z,1008.66
2017-10-23T05:58:18.513Z,1008.71
2017-10-23T05:58:58.961Z,1008.71
2017-10-23T05:59:39.427Z,1008.72
2017-10-23T06:00:19.961Z,1008.68
2017-10-23T06:01:00.573Z,1008.67
2017-10-23T06:01:41.188Z,1008.72
2017-10-23T06:02:21.611Z,1008.68
2017-10-23T06:03:02.069Z,1008.68
2017-10-23T06:03:42.528Z,1008.67
2017-10-23T06:04:23.060Z,1008.66
2017-10-23T06:05:03.623Z,1008.73
2017-10-23T06:05:44.081Z,1008.69
2017-10-23T06:06:24.538Z,1008.72
2017-10-23T06:07:04.985Z,1008.71
2017-10-23T06:07:45.445Z,1008.75
2017-10-23T06:09:43.091Z,1008.78
2017-10-23T06:10:23.589Z,1008.77
2017-10-23T06:11:04.127Z,1008.83
2017-10-23T06:11:44.684Z,1008.81
2017-10-23T06:12:25.155Z,1008.81
2017-10-23T06:13:05.642Z,1008.82
2017-10-23T06:13:46.166Z,1008.85
2017-10-23T06:14:26.631Z,1008.85
2017-10-23T06:15:07.125Z,1008.86
2017-10-23T06:15:47.617Z,1008.89
2017-10-23T06:16:28.099Z,1008.84
2017-10-23T06:17:08.584Z,1008.87
2017-10-23T06:17:49.053Z,1008.87
2017-10-23T06:18:29.573Z,1008.88
2017-10-23T06:19:10.046Z,1008.89
2017-10-23T06:19:50.553Z,1008.88
2017-10-23T06:20:31.073Z,1008.9
2017-10-23T06:21:11.622Z,1008.88
2017-10-23T06:21:52.161Z,1008.9
2017-10-23T06:22:32.718Z,1008.9
2017-10-23T06:23:13.230Z,1008.95
2017-10-23T06:23:53.772Z,1008.97
2017-10-23T06:24:34.430Z,1008.94
2017-10-23T06:25:14.972Z,1008.96
2017-10-23T06:25:55.452Z,1008.97
2017-10-23T06:26:36.044Z,1008.95
2017-10-23T06:27:16.591Z,1008.99
2017-10-23T06:27:57.107Z,1008.96
2017-10-23T06:28:37.616Z,1008.97
2017-10-23T06:29:18.127Z,1009.01
2017-10-23T06:29:58.653Z,1009
2017-10-23T06:30:39.146Z,1009.01
2017-10-23T06:31:19.627Z,1008.99
2017-10-23T06:33:37.433Z,1009.01
2017-10-23T06:34:17.938Z,1009.02
2017-10-23T06:34:58.404Z,1009.03
2017-10-23T06:35:38.858Z,1008.97
2017-10-23T06:36:19.334Z,1009.04
2017-10-23T06:36:59.829Z,1009.07
2017-10-23T06:37:40.326Z,1009.1
2017-10-23T06:38:20.801Z,1009.08
2017-10-23T06:39:01.401Z,1009.08
2017-10-23T06:39:41.921Z,1009.01
2017-10-23T06:40:22.415Z,1009.05
2017-10-23T06:41:02.897Z,1009.11
2017-10-23T06:42:55.417Z,1009.08
2017-10-23T06:43:35.918Z,1009.07
2017-10-23T06:44:16.416Z,1009.06
2017-10-23T06:44:56.899Z,1009.1
2017-10-23T06:45:37.398Z,1009.12
2017-10-23T06:46:17.905Z,1009.11
2017-10-23T06:46:58.396Z,1009.11
2017-10-23T06:47:38.882Z,1009.16
2017-10-23T06:48:19.360Z,1009.14
2017-10-23T06:48:59.830Z,1009.12
2017-10-23T06:49:40.300Z,1009.03
2017-10-23T06:50:20.801Z,1009.11
2017-10-23T06:51:01.297Z,1009.1
2017-10-23T06:51:41.780Z,1009.15
2017-10-23T06:52:22.284Z,1009.14
2017-10-23T06:53:02.792Z,1009.17
2017-10-23T06:53:43.319Z,1009.21
2017-10-23T06:54:23.834Z,1009.22
2017-10-23T06:55:04.355Z,1009.26
2017-10-23T06:55:44.832Z,1009.26
2017-10-23T06:56:25.296Z,1009.31
2017-10-23T06:57:05.795Z,1009.38
2017-10-23T06:57:46.287Z,1009.39
2017-10-23T06:58:26.779Z,1009.31
2017-10-23T06:59:07.273Z,1009.35
2017-10-23T06:59:47.754Z,1009.29
2017-10-23T07:00:28.229Z,1009.3
2017-10-23T07:01:08.692Z,1009.31
2017-10-23T07:01:49.157Z,1009.3
2017-10-23T07:02:29.625Z,1009.34
2017-10-23T07:03:10.064Z,1009.3
2017-10-23T07:03:50.545Z,1009.31
2017-10-23T07:04:31.063Z,1009.29
2017-10-23T07:05:11.551Z,1009.34
2017-10-23T07:05:52.056Z,1009.32
2017-10-23T07:06:32.550Z,1009.37
2017-10-23T07:07:13.030Z,1009.4
2017-10-23T07:07:53.560Z,1009.36
2017-10-23T07:08:34.035Z,1009.39
2017-10-23T07:09:14.498Z,1009.37
2017-10-23T07:09:54.962Z,1009.42
2017-10-23T07:10:35.461Z,1009.42
2017-10-23T07:11:15.970Z,1009.4
2017-10-23T07:11:56.444Z,1009.43
2017-10-23T07:12:36.884Z,1009.46
2017-10-23T07:15:04.798Z,1009.54
2017-10-23T07:15:45.271Z,1009.5
2017-10-23T07:16:25.768Z,1009.51
2017-10-23T07:17:06.266Z,1009.5
2017-10-23T07:17:46.748Z,1009.52
2017-10-23T07:18:27.239Z,1009.52
2017-10-23T07:19:07.713Z,1009.56
2017-10-23T07:19:48.219Z,1009.56
2017-10-23T07:20:28.733Z,1009.56
2017-10-23T07:21:09.217Z,1009.55
2017-10-23T07:21:49.720Z,1009.56
2017-10-23T07:22:30.214Z,1009.56
2017-10-23T07:23:10.744Z,1009.6
2017-10-23T07:23:51.259Z,1009.66
2017-10-23T07:24:31.735Z,1009.67
2017-10-23T07:25:12.204Z,1009.64
2017-10-23T07:25:52.655Z,1009.68
2017-10-23T07:27:50.321Z,1009.77
2017-10-23T07:28:30.838Z,1009.73
2017-10-23T07:29:11.305Z,1009.8
2017-10-23T07:29:51.798Z,1009.78
2017-10-23T07:30:32.291Z,1009.7
2017-10-23T07:31:12.771Z,1009.7
2017-10-23T07:31:53.281Z,1009.78
2017-10-23T07:34:11.086Z,1009.64
2017-10-23T07:34:51.586Z,1009.68
2017-10-23T07:35:32.072Z,1009.67
2017-10-23T07:36:12.532Z,1009.72
2017-10-23T07:36:53.001Z,1009.71
2017-10-23T07:37:33.518Z,1009.81
2017-10-23T07:39:46.305Z,1009.87
2017-10-23T07:40:26.748Z,1009.78
2017-10-23T07:41:07.333Z,1009.79
2017-10-23T07:41:47.904Z,1009.76
2017-10-23T07:42:28.471Z,1009.89
2017-10-23T07:43:09.081Z,1009.87
2017-10-23T07:43:50.274Z,1009.87
2017-10-23T07:44:30.946Z,1009.88
2017-10-23T07:45:11.528Z,1009.88
2017-10-23T07:45:52.231Z,1009.89
2017-10-23T07:46:32.779Z,1009.81
2017-10-23T07:47:13.345Z,1009.87
2017-10-23T07:47:53.890Z,1009.86
2017-10-23T07:48:34.442Z,1009.91
2017-10-23T07:49:14.988Z,1010.06
2017-10-23T07:49:55.522Z,1009.98
2017-10-23T07:50:36.112Z,1009.97
2017-10-23T07:51:16.685Z,1009.94
2017-10-23T07:51:57.264Z,1009.95
2017-10-23T07:52:37.790Z,1009.93
2017-10-23T07:53:18.404Z,1009.87
2017-10-23T07:53:59.001Z,1009.88
2017-10-23T07:54:39.578Z,1009.86
2017-10-23T07:55:20.165Z,1009.84
2017-10-23T07:56:00.824Z,1009.83
2017-10-23T07:56:41.425Z,1009.77
2017-10-23T07:57:22.087Z,1009.82
2017-10-23T07:58:02.676Z,1009.78
2017-10-23T07:58:43.268Z,1009.8
2017-10-23T07:59:23.846Z,1009.82
2017-10-23T08:00:04.414Z,1009.84
2017-10-23T08:00:44.976Z,1009.85
2017-10-23T08:01:25.588Z,1009.91
2017-10-23T08:02:06.163Z,1010.02
2017-10-23T08:02:46.726Z,1010.01
2017-10-23T08:03:27.266Z,1010.08
2017-10-23T08:04:07.809Z,1010.12
2017-10-23T08:04:48.345Z,1010.11
2017-10-23T08:05:28.845Z,1010.15
2017-10-23T08:06:09.356Z,1010.07
2017-10-23T08:06:49.907Z,1010
2017-10-23T08:07:30.457Z,1010.06
2017-10-23T08:08:11.042Z,1010.1
2017-10-23T08:08:51.628Z,1010.15
2017-10-23T08:09:32.223Z,1010.18
2017-10-23T08:10:12.823Z,1010.23
2017-10-23T08:10:53.404Z,1010.17
2017-10-23T08:11:33.927Z,1010.13
2017-10-23T08:12:14.460Z,1010.17
2017-10-23T08:12:55.088Z,1010.11
2017-10-23T08:13:35.691Z,1010.12
2017-10-23T08:14:16.295Z,1010.11
2017-10-23T08:14:56.786Z,1010.11
2017-10-23T08:15:37.277Z,1010.05
2017-10-23T08:16:17.747Z,1010.03
2017-10-23T08:16:58.249Z,1010.05
2017-10-23T08:17:38.716Z,1010.06
2017-10-23T08:18:19.133Z,1010.09
2017-10-23T08:18:59.624Z,1010.04
2017-10-23T08:19:40.134Z,1010
2017-10-23T08:20:20.626Z,1010.01
2017-10-23T08:21:01.145Z,1010.05
2017-10-23T08:21:41.739Z,1010.06
2017-10-23T08:22:22.213Z,1010.01
2017-10-23T08:23:02.783Z,1010.02
2017-10-23T08:23:43.302Z,1010.01
2017-10-23T08:24:23.883Z,1010.07
2017-10-23T08:25:04.374Z,1010.07
2017-10-23T08:25:44.859Z,1010.07
2017-10-23T08:26:25.328Z,1010.04
2017-10-23T08:27:05.822Z,1010
2017-10-23T08:27:46.284Z,1010.02
2017-10-23T08:28:26.747Z,1010.01
2017-10-23T08:29:07.219Z,1010.11
2017-10-23T08:29:47.660Z,1010.14
2017-10-23T08:30:28.124Z,1010.1
2017-10-23T08:31:08.673Z,1010.15
2017-10-23T08:31:49.119Z,1010.11
2017-10-23T08:33:41.718Z,1010.15
2017-10-23T08:34:22.160Z,1010.15
2017-10-23T08:35:02.669Z,1010.22
2017-10-23T08:35:43.251Z,1010.23
2017-10-23T08:36:23.933Z,1010.21
2017-10-23T08:37:04.479Z,1010.12
2017-10-23T08:37:44.971Z,1010.17
2017-10-23T08:38:25.440Z,1010.14
2017-10-23T08:39:05.964Z,1010.12
2017-10-23T08:39:46.521Z,1010.17
2017-10-23T08:40:27.990Z,1010.18
2017-10-23T08:41:08.586Z,1010.23
2017-10-23T08:41:49.162Z,1010.16
2017-10-23T08:42:29.733Z,1010.09
2017-10-23T08:43:10.390Z,1010.12
2017-10-23T08:43:51.031Z,1010.18
2017-10-23T08:44:31.695Z,1010.17